TimeCST,TemperatureF,Dew PointF,Humidity,Sea Level PressureIn,VisibilityMPH,Wind Direction,Wind SpeedMPH,Gust SpeedMPH,PrecipitationIn,Events,Conditions,WindDirDegrees,DateUTC
12:53 AM,43.0,39.9,89,30.32,10.0,Calm,Calm,-,N/A,,Clear,0,2013-02-02 06:53:00
1:53 AM,41.0,37.9,89,30.33,10.0,Calm,Calm,-,N/A,,Clear,0,2013-02-02 07:53:00
2:53 AM,39.2,37.4,93,30.31,10.0,ENE,4.6,-,N/A,,Clear,70,2013-02-02 08:53:00
3:53 AM,43.0,41.0,93,30.30,10.0,Calm,Calm,-,N/A,,Overcast,0,2013-02-02 09:53:00
4:53 AM,42.1,39.9,92,30.31,10.0,ENE,5.8,-,N/A,,Scattered Clouds,60,2013-02-02 10:53:00
5:53 AM,43.0,41.0,93,30.31,10.0,East,5.8,-,N/A,,Mostly Cloudy,80,2013-02-02 11:53:00
6:53 AM,42.1,39.0,89,30.31,10.0,East,5.8,-,N/A,,Partly Cloudy,100,2013-02-02 12:53:00
7:53 AM,44.1,39.0,82,30.31,10.0,East,4.6,-,N/A,,Clear,100,2013-02-02 13:53:00
8:53 AM,50.0,42.1,74,30.32,10.0,ESE,6.9,-,N/A,,Clear,110,2013-02-02 14:53:00
9:53 AM,57.0,44.1,62,30.31,10.0,ESE,6.9,-,N/A,,Clear,110,2013-02-02 15:53:00
10:53 AM,62.1,46.0,56,30.30,10.0,SSE,5.8,-,N/A,,Clear,160,2013-02-02 16:53:00
11:53 AM,66.0,48.0,52,30.27,10.0,South,6.9,-,N/A,,Clear,170,2013-02-02 17:53:00
12:53 PM,66.9,48.9,52,30.24,10.0,SW,6.9,17.3,N/A,,Clear,220,2013-02-02 18:53:00
1:53 PM,69.1,46.9,45,30.21,10.0,SW,10.4,-,N/A,,Partly Cloudy,230,2013-02-02 19:53:00
2:53 PM,70.0,46.0,42,30.20,10.0,SW,9.2,-,N/A,,Partly Cloudy,230,2013-02-02 20:53:00
3:53 PM,69.1,43.0,39,30.19,10.0,WSW,8.1,-,N/A,,Clear,240,2013-02-02 21:53:00
4:53 PM,68.0,44.1,42,30.18,10.0,WSW,6.9,-,N/A,,Clear,240,2013-02-02 22:53:00
5:53 PM,61.0,45.0,56,30.18,10.0,WSW,5.8,-,N/A,,Clear,250,2013-02-02 23:53:00
6:53 PM,61.0,45.0,56,30.20,10.0,West,4.6,-,N/A,,Clear,270,2013-02-03 00:53:00
7:53 PM,57.0,46.0,67,30.21,10.0,Calm,Calm,-,N/A,,Clear,0,2013-02-03 01:53:00
8:53 PM,57.9,48.9,72,30.22,10.0,SW,8.1,-,N/A,,Clear,230,2013-02-03 02:53:00
9:53 PM,57.9,50.0,75,30.22,10.0,WSW,5.8,-,N/A,,Mostly Cloudy,240,2013-02-03 03:53:00
10:53 PM,54.0,50.0,86,30.22,10.0,West,4.6,-,N/A,,Clear,260,2013-02-03 04:53:00
11:53 PM,55.0,51.1,86,30.22,10.0,West,3.5,-,N/A,,Mostly Cloudy,280,2013-02-03 05:53:00